createdAt,value
2017-05-30T00:00:25.323Z,0
2017-05-30T00:01:27.385Z,0
2017-05-30T00:02:28.812Z,0
2017-05-30T00:03:31.529Z,0
2017-05-30T00:04:34.244Z,0
2017-05-30T00:05:36.872Z,0
2017-05-30T00:06:39.541Z,0
2017-05-30T00:07:40.970Z,0
2017-05-30T00:08:44.309Z,0
2017-05-30T00:09:46.939Z,0
2017-05-30T00:10:49.636Z,0
2017-05-30T00:11:51.663Z,0
2017-05-30T00:12:53.124Z,0
2017-05-30T00:14:57.379Z,0
2017-05-30T00:15:59.726Z,0
2017-05-30T00:18:03.212Z,0
2017-05-30T00:19:06.053Z,0
2017-05-30T00:20:07.491Z,0
2017-05-30T00:21:10.272Z,0
2017-05-30T00:22:13.278Z,0
2017-05-30T00:23:17.935Z,0
2017-05-30T00:24:20.686Z,0
2017-05-30T00:25:22.783Z,0
2017-05-30T00:26:24.212Z,0
2017-05-30T00:27:26.623Z,0
2017-05-30T00:28:28.483Z,0
2017-05-30T00:29:30.674Z,0
2017-05-30T00:30:33.565Z,0
2017-05-30T00:31:34.990Z,0
2017-05-30T00:32:37.706Z,0
2017-05-30T00:33:41.635Z,0
2017-05-30T00:34:43.215Z,0
2017-05-30T00:35:45.852Z,0
2017-05-30T00:37:49.876Z,0
2017-05-30T00:38:52.241Z,0
2017-05-30T00:39:53.671Z,0
2017-05-30T00:40:57.580Z,0
2017-05-30T00:42:01.305Z,0
2017-05-30T00:44:08.372Z,0
2017-05-30T00:45:09.801Z,0
2017-05-30T00:46:13.769Z,0
2017-05-30T00:47:15.671Z,0
2017-05-30T00:48:18.239Z,0
2017-05-30T00:49:20.196Z,0
2017-05-30T00:50:21.628Z,0
2017-05-30T00:51:23.723Z,0
2017-05-30T00:52:25.721Z,0
2017-05-30T00:53:28.546Z,0
2017-05-30T00:54:29.974Z,0
2017-05-30T00:55:32.192Z,0
2017-05-30T00:56:36.741Z,0
2017-05-30T00:57:38.169Z,0
2017-05-30T00:58:42.478Z,0
2017-05-30T00:59:44.619Z,0
2017-05-30T01:00:46.624Z,0
2017-05-30T01:01:48.841Z,0
2017-05-30T01:02:50.270Z,0
2017-05-30T01:03:53.366Z,0
2017-05-30T01:04:55.410Z,0
2017-05-30T01:05:56.840Z,0
2017-05-30T01:06:58.268Z,0
2017-05-30T01:08:00.642Z,0
2017-05-30T01:09:02.066Z,0
2017-05-30T01:10:04.197Z,0
2017-05-30T01:11:05.625Z,0
2017-05-30T01:12:07.605Z,0
2017-05-30T01:13:09.041Z,0
2017-05-30T01:14:11.356Z,0
2017-05-30T01:15:12.782Z,0
2017-05-30T01:16:14.862Z,0
2017-05-30T01:17:16.289Z,0
2017-05-30T01:18:17.725Z,0
2017-05-30T01:19:19.159Z,0
2017-05-30T01:20:20.588Z,0
2017-05-30T01:21:22.013Z,0
2017-05-30T01:22:27.356Z,0
2017-05-30T01:23:29.334Z,0
2017-05-30T01:24:30.762Z,0
2017-05-30T01:25:33.694Z,0
2017-05-30T01:26:35.815Z,0
2017-05-30T01:27:37.240Z,0
2017-05-30T01:28:38.675Z,0
2017-05-30T01:29:40.718Z,0
2017-05-30T01:30:42.908Z,0
2017-05-30T01:31:44.340Z,0
2017-05-30T01:32:46.441Z,0
2017-05-30T01:33:47.873Z,0
2017-05-30T01:34:49.307Z,0
2017-05-30T01:35:51.327Z,0
2017-05-30T01:36:52.752Z,0
2017-05-30T01:37:55.095Z,0
2017-05-30T01:38:56.522Z,0
2017-05-30T01:39:58.670Z,0
2017-05-30T01:41:00.103Z,0
2017-05-30T01:42:02.074Z,0
2017-05-30T01:43:03.505Z,0
2017-05-30T01:44:04.931Z,0
2017-05-30T01:45:06.359Z,0
2017-05-30T01:46:07.783Z,0
2017-05-30T01:47:09.213Z,0
2017-05-30T01:48:11.198Z,0
2017-05-30T01:49:12.630Z,0
2017-05-30T01:50:14.868Z,0
2017-05-30T01:51:16.453Z,0
2017-05-30T01:52:18.600Z,0
2017-05-30T01:53:20.026Z,0
2017-05-30T01:54:22.441Z,0
2017-05-30T01:55:23.880Z,0
2017-05-30T01:56:26.020Z,0
2017-05-30T01:57:27.451Z,0
2017-05-30T01:58:29.477Z,0
2017-05-30T01:59:30.902Z,0
2017-05-30T02:00:32.332Z,0
2017-05-30T02:01:34.301Z,0
2017-05-30T02:02:35.741Z,0
2017-05-30T02:03:38.118Z,0
2017-05-30T02:04:39.547Z,0
2017-05-30T02:05:41.762Z,0
2017-05-30T02:06:43.197Z,0
2017-05-30T02:07:45.249Z,0
2017-05-30T02:08:46.679Z,0
2017-05-30T02:09:48.123Z,0
2017-05-30T02:10:50.530Z,0
2017-05-30T02:11:52.625Z,0
2017-05-30T02:12:54.053Z,0
2017-05-30T02:13:56.439Z,0
2017-05-30T02:14:57.457Z,0
2017-05-30T02:15:58.899Z,0
2017-05-30T02:17:01.158Z,0
2017-05-30T02:18:02.589Z,0
2017-05-30T02:19:04.618Z,0
2017-05-30T02:20:06.045Z,0
2017-05-30T02:21:07.470Z,0
2017-05-30T02:22:09.445Z,0
2017-05-30T02:23:10.931Z,0
2017-05-30T02:24:13.115Z,0
2017-05-30T02:25:14.547Z,0
2017-05-30T02:26:16.536Z,0
2017-05-30T02:27:17.963Z,0
2017-05-30T02:28:19.399Z,0
2017-05-30T02:29:21.796Z,0
2017-05-30T02:30:23.228Z,0
2017-05-30T02:31:25.362Z,0
2017-05-30T02:32:26.854Z,0
2017-05-30T02:33:29.257Z,0
2017-05-30T02:34:30.687Z,0
2017-05-30T02:35:32.880Z,0
2017-05-30T02:36:34.309Z,0
2017-05-30T02:37:36.280Z,0
2017-05-30T02:38:37.706Z,0
2017-05-30T02:39:39.950Z,0
2017-05-30T02:40:41.489Z,0
2017-05-30T02:41:43.516Z,0
2017-05-30T02:42:44.956Z,0
2017-05-30T02:43:46.384Z,0
2017-05-30T02:44:48.418Z,0
2017-05-30T02:45:49.849Z,0
2017-05-30T02:46:52.208Z,0
2017-05-30T02:47:53.640Z,0
2017-05-30T02:48:55.782Z,0
2017-05-30T02:49:57.211Z,0
2017-05-30T02:50:59.204Z,0
2017-05-30T02:52:00.634Z,0
2017-05-30T02:53:02.066Z,0
2017-05-30T02:54:04.018Z,0
2017-05-30T02:55:05.450Z,0
2017-05-30T02:56:07.687Z,0
2017-05-30T02:57:09.122Z,0
2017-05-30T02:58:11.153Z,4
2017-05-30T02:59:12.584Z,4
2017-05-30T03:00:14.009Z,4
2017-05-30T03:01:15.960Z,4
2017-05-30T03:02:17.393Z,0
2017-05-30T03:03:19.767Z,4
2017-05-30T03:04:21.193Z,4
2017-05-30T03:05:23.385Z,8
2017-05-30T03:06:24.815Z,4
2017-05-30T03:07:26.779Z,4
2017-05-30T03:08:28.211Z,8
2017-05-30T03:09:30.536Z,4
2017-05-30T03:10:31.591Z,8
2017-05-30T03:11:33.017Z,8
2017-05-30T03:12:35.379Z,12
2017-05-30T03:13:36.811Z,8
2017-05-30T03:14:38.874Z,12
2017-05-30T03:15:40.309Z,12
2017-05-30T03:16:42.262Z,12
2017-05-30T03:17:43.686Z,12
2017-05-30T03:18:45.118Z,16
2017-05-30T03:19:47.555Z,16
2017-05-30T03:20:49.716Z,16
2017-05-30T03:21:51.147Z,16
2017-05-30T03:22:52.580Z,16
2017-05-30T03:23:54.672Z,20
2017-05-30T03:24:56.119Z,20
2017-05-30T03:25:58.089Z,20
2017-05-30T03:26:59.519Z,24
2017-05-30T03:28:01.795Z,28
2017-05-30T03:29:03.226Z,28
2017-05-30T03:30:05.278Z,32
2017-05-30T03:31:06.705Z,32
2017-05-30T03:32:08.136Z,36
2017-05-30T03:33:10.101Z,32
2017-05-30T03:34:11.532Z,40
2017-05-30T03:35:13.783Z,40
2017-05-30T03:36:21.476Z,44
2017-05-30T03:37:23.487Z,48
2017-05-30T03:38:24.913Z,52
2017-05-30T03:39:26.346Z,60
2017-05-30T03:40:28.322Z,68
2017-05-30T03:41:29.756Z,76
2017-05-30T03:42:32.008Z,80
2017-05-30T03:43:33.439Z,80
2017-05-30T03:44:35.482Z,84
2017-05-30T03:45:36.910Z,84
2017-05-30T03:46:38.341Z,88
2017-05-30T03:47:40.762Z,84
2017-05-30T03:48:42.849Z,84
2017-05-30T03:49:44.397Z,84
2017-05-30T03:50:45.823Z,88
2017-05-30T03:51:48.262Z,92
2017-05-30T03:52:50.345Z,100
2017-05-30T03:53:51.934Z,116
2017-05-30T03:54:53.380Z,128
2017-05-30T03:55:55.511Z,140
2017-05-30T03:56:56.938Z,140
2017-05-30T03:57:58.904Z,140
2017-05-30T03:59:00.338Z,140
2017-05-30T04:00:02.576Z,144
2017-05-30T04:01:04.001Z,144
2017-05-30T04:02:05.963Z,148
2017-05-30T04:03:07.403Z,152
2017-05-30T04:04:08.836Z,156
2017-05-30T04:05:11.239Z,160
2017-05-30T04:06:12.672Z,168
2017-05-30T04:07:14.771Z,176
2017-05-30T04:08:16.204Z,184
2017-05-30T04:09:18.600Z,184
2017-05-30T04:10:20.031Z,188
2017-05-30T04:11:22.179Z,196
2017-05-30T04:12:23.606Z,200
2017-05-30T04:13:26.024Z,204
2017-05-30T04:14:27.457Z,212
2017-05-30T04:15:29.662Z,216
2017-05-30T04:16:31.087Z,216
2017-05-30T04:17:33.487Z,220
2017-05-30T04:18:34.917Z,224
2017-05-30T04:19:37.063Z,228
2017-05-30T04:20:38.496Z,232
2017-05-30T04:21:40.490Z,236
2017-05-30T04:22:41.917Z,244
2017-05-30T04:23:43.352Z,244
2017-05-30T04:24:45.359Z,256
2017-05-30T04:25:46.799Z,260
2017-05-30T04:26:49.146Z,264
2017-05-30T04:27:50.576Z,272
2017-05-30T04:28:52.593Z,284
2017-05-30T04:29:54.024Z,292
2017-05-30T04:30:55.453Z,300
2017-05-30T04:31:57.425Z,312
2017-05-30T04:32:58.853Z,332
2017-05-30T04:34:01.100Z,352
2017-05-30T04:35:04.499Z,392
2017-05-30T04:36:06.472Z,452
2017-05-30T04:37:07.917Z,512
2017-05-30T04:38:09.348Z,508
2017-05-30T04:39:11.725Z,468
2017-05-30T04:40:13.149Z,420
2017-05-30T04:41:15.379Z,412
2017-05-30T04:42:16.810Z,392
2017-05-30T04:43:18.864Z,344
2017-05-30T04:44:20.297Z,324
2017-05-30T04:45:22.280Z,304
2017-05-30T04:46:23.710Z,296
2017-05-30T04:47:25.145Z,288
2017-05-30T04:48:27.538Z,288
2017-05-30T04:49:29.607Z,288
2017-05-30T04:50:31.034Z,324
2017-05-30T04:51:33.517Z,344
2017-05-30T04:52:34.944Z,352
2017-05-30T04:53:37.099Z,372
2017-05-30T04:54:38.529Z,376
2017-05-30T04:55:39.958Z,372
2017-05-30T04:56:42.019Z,356
2017-05-30T04:57:43.463Z,364
2017-05-30T04:58:45.872Z,376
2017-05-30T04:59:47.304Z,388
2017-05-30T05:00:49.461Z,404
2017-05-30T05:01:50.899Z,432
2017-05-30T05:02:52.877Z,504
2017-05-30T05:03:54.310Z,528
2017-05-30T05:04:55.737Z,556
2017-05-30T05:06:03.668Z,540
2017-05-30T05:07:05.099Z,560
2017-05-30T05:08:07.228Z,572
2017-05-30T05:09:08.668Z,580
2017-05-30T05:10:10.661Z,584
2017-05-30T05:11:15.973Z,600
2017-05-30T05:12:17.409Z,572
2017-05-30T05:13:19.588Z,548
2017-05-30T05:14:21.019Z,548
2017-05-30T05:15:22.979Z,552
2017-05-30T05:16:24.417Z,540
2017-05-30T05:17:25.843Z,520
2017-05-30T05:18:27.815Z,500
2017-05-30T05:19:29.253Z,484
2017-05-30T05:20:31.544Z,492
2017-05-30T05:21:32.973Z,508
2017-05-30T05:22:35.014Z,520
2017-05-30T05:23:36.443Z,532
2017-05-30T05:24:37.879Z,536
2017-05-30T05:25:39.980Z,556
2017-05-30T05:26:41.407Z,560
2017-05-30T05:27:43.365Z,556
2017-05-30T05:28:44.798Z,556
2017-05-30T05:29:47.105Z,548
2017-05-30T05:30:48.534Z,540
2017-05-30T05:31:50.593Z,512
2017-05-30T05:32:52.026Z,504
2017-05-30T05:33:54.334Z,504
2017-05-30T05:34:55.419Z,504
2017-05-30T05:35:56.854Z,504
2017-05-30T05:36:59.146Z,516
2017-05-30T05:38:00.577Z,528
2017-05-30T05:39:02.609Z,544
2017-05-30T05:40:04.035Z,560
2017-05-30T05:41:05.468Z,564
2017-05-30T05:42:07.869Z,568
2017-05-30T05:43:09.893Z,572
2017-05-30T05:44:11.314Z,564
2017-05-30T05:45:12.748Z,564
2017-05-30T05:46:15.036Z,572
2017-05-30T05:47:16.469Z,580
2017-05-30T05:48:18.553Z,572
2017-05-30T05:49:19.983Z,572
2017-05-30T05:50:22.357Z,576
2017-05-30T05:51:23.494Z,588
2017-05-30T05:52:24.930Z,576
2017-05-30T05:53:27.354Z,580
2017-05-30T05:54:29.411Z,576
2017-05-30T05:55:30.835Z,572
2017-05-30T05:56:32.265Z,584
2017-05-30T05:57:34.240Z,592
2017-05-30T05:58:35.667Z,612
2017-05-30T05:59:37.866Z,608
2017-05-30T06:00:39.454Z,616
2017-05-30T06:01:41.464Z,640
2017-05-30T06:02:42.897Z,668
2017-05-30T06:03:44.327Z,724
2017-05-30T06:04:46.303Z,752
2017-05-30T06:05:47.739Z,756
2017-05-30T06:06:49.903Z,776
2017-05-30T06:07:51.379Z,804
2017-05-30T06:08:53.397Z,864
2017-05-30T06:09:54.896Z,900
2017-05-30T06:10:56.326Z,936
2017-05-30T06:11:58.716Z,976
2017-05-30T06:13:00.151Z,1032
2017-05-30T06:14:02.270Z,1068
2017-05-30T06:15:03.707Z,1072
2017-05-30T06:16:06.042Z,1044
2017-05-30T06:17:07.469Z,1036
2017-05-30T06:18:09.518Z,1044
2017-05-30T06:19:10.957Z,1040
2017-05-30T06:20:12.386Z,996
2017-05-30T06:21:14.781Z,916
2017-05-30T06:22:16.213Z,880
2017-05-30T06:23:18.334Z,868
2017-05-30T06:24:19.770Z,868
2017-05-30T06:25:22.177Z,872
2017-05-30T06:26:23.605Z,908
2017-05-30T06:27:25.863Z,908
2017-05-30T06:28:27.292Z,932
2017-05-30T06:30:34.197Z,996
2017-05-30T06:31:35.630Z,992
2017-05-30T06:32:37.652Z,1036
2017-05-30T06:33:40.775Z,1024
2017-05-30T06:34:42.205Z,1020
2017-05-30T06:35:43.637Z,1060
2017-05-30T06:36:45.622Z,1060
2017-05-30T06:37:47.112Z,1080
2017-05-30T06:38:49.405Z,1088
2017-05-30T06:39:50.838Z,1080
2017-05-30T06:40:52.945Z,1080
2017-05-30T06:41:54.375Z,1048
2017-05-30T06:42:56.759Z,1080
2017-05-30T06:43:58.185Z,1104
2017-05-30T06:44:59.608Z,1096
2017-05-30T06:46:01.947Z,580
2017-05-30T06:47:03.937Z,716
2017-05-30T06:48:05.369Z,1028
2017-05-30T06:49:08.326Z,896
2017-05-30T06:50:10.279Z,332
2017-05-30T06:51:11.881Z,800
2017-05-30T06:52:13.318Z,768
2017-05-30T06:53:15.750Z,732
2017-05-30T06:54:17.921Z,708
2017-05-30T06:55:19.353Z,724
2017-05-30T06:56:20.795Z,732
2017-05-30T06:57:22.927Z,724
2017-05-30T06:58:25.981Z,740
2017-05-30T06:59:28.325Z,724
2017-05-30T07:00:29.430Z,740
2017-05-30T07:01:30.863Z,744
2017-05-30T07:02:33.208Z,744
2017-05-30T07:03:34.638Z,752
2017-05-30T07:04:36.766Z,768
2017-05-30T07:05:38.195Z,768
2017-05-30T07:06:40.562Z,772
2017-05-30T07:07:42.000Z,792
2017-05-30T07:08:44.168Z,792
2017-05-30T07:09:47.188Z,832
2017-05-30T07:10:48.628Z,860
2017-05-30T07:11:50.733Z,832
2017-05-30T07:12:52.163Z,832
2017-05-30T07:13:54.570Z,840
2017-05-30T07:14:56.005Z,852
2017-05-30T07:15:58.171Z,876
2017-05-30T07:16:59.601Z,904
2017-05-30T07:18:02.012Z,892
2017-05-30T07:19:03.441Z,908
2017-05-30T07:20:04.886Z,884
2017-05-30T07:21:07.269Z,868
2017-05-30T07:22:09.976Z,860
2017-05-30T07:23:12.818Z,856
2017-05-30T07:24:14.254Z,864
2017-05-30T07:25:16.218Z,864
2017-05-30T07:26:17.653Z,864
2017-05-30T07:27:19.089Z,880
2017-05-30T07:28:21.055Z,880
2017-05-30T07:29:22.490Z,876
2017-05-30T07:30:24.748Z,884
2017-05-30T07:31:26.182Z,888
2017-05-30T07:32:28.275Z,884
2017-05-30T07:33:29.706Z,892
2017-05-30T07:34:32.073Z,900
2017-05-30T07:35:33.043Z,876
2017-05-30T07:36:34.480Z,868
2017-05-30T07:37:36.764Z,860
2017-05-30T07:38:38.197Z,844
2017-05-30T07:39:42.902Z,840
2017-05-30T07:40:45.153Z,852
2017-05-30T07:41:46.585Z,844
2017-05-30T07:42:48.557Z,856
2017-05-30T07:43:50.090Z,872
2017-05-30T07:44:53.052Z,876
2017-05-30T07:45:54.489Z,916
2017-05-30T07:46:56.485Z,940
2017-05-30T07:47:57.922Z,964
2017-05-30T07:49:00.181Z,980
2017-05-30T07:50:01.299Z,988
2017-05-30T07:51:02.737Z,972
2017-05-30T07:52:04.933Z,988
2017-05-30T07:53:06.367Z,352
2017-05-30T07:54:07.796Z,684
2017-05-30T07:55:09.882Z,988
2017-05-30T07:56:11.308Z,996
2017-05-30T07:57:12.745Z,1012
2017-05-30T07:58:14.173Z,1036
2017-05-30T07:59:15.621Z,1020
2017-05-30T08:00:18.010Z,976
2017-05-30T08:01:19.445Z,1004
2017-05-30T08:02:21.662Z,948
2017-05-30T08:03:23.098Z,972
2017-05-30T08:04:25.113Z,988
2017-05-30T08:05:28.471Z,960
2017-05-30T08:06:29.897Z,952
2017-05-30T08:07:32.108Z,944
2017-05-30T08:08:34.421Z,1008
2017-05-30T08:09:35.488Z,1068
2017-05-30T08:10:36.922Z,1208
2017-05-30T08:11:39.293Z,1168
2017-05-30T08:12:40.729Z,1072
2017-05-30T08:13:42.167Z,1016
2017-05-30T08:14:43.629Z,996
2017-05-30T08:15:45.056Z,848
2017-05-30T08:16:47.182Z,800
2017-05-30T08:17:48.612Z,800
2017-05-30T08:18:51.037Z,996
2017-05-30T08:19:52.472Z,1004
2017-05-30T08:20:54.672Z,1036
2017-05-30T08:21:56.108Z,1064
2017-05-30T08:22:58.138Z,1100
2017-05-30T08:23:59.576Z,1108
2017-05-30T08:25:01.022Z,1148
2017-05-30T08:26:03.004Z,1116
2017-05-30T08:27:04.443Z,1124
2017-05-30T08:28:06.701Z,1168
2017-05-30T08:29:08.137Z,1184
2017-05-30T08:30:09.572Z,1368
2017-05-30T08:31:11.630Z,1404
2017-05-30T08:32:13.058Z,1600
2017-05-30T08:33:15.411Z,1544
2017-05-30T08:34:16.850Z,1344
2017-05-30T08:35:19.023Z,1420
2017-05-30T08:36:20.467Z,1228
2017-05-30T08:37:22.901Z,1084
2017-05-30T08:38:24.330Z,1384
2017-05-30T08:39:26.524Z,1168
2017-05-30T08:40:27.958Z,1032
2017-05-30T08:41:30.346Z,1088
2017-05-30T08:42:31.782Z,1052
2017-05-30T08:43:33.997Z,1072
2017-05-30T08:44:35.433Z,1204
2017-05-30T08:45:37.862Z,1216
2017-05-30T08:46:39.298Z,1332
2017-05-30T08:47:41.533Z,1356
2017-05-30T08:48:42.971Z,1596
2017-05-30T08:49:44.988Z,1464
2017-05-30T08:50:46.424Z,1560
2017-05-30T08:51:51.480Z,1512
2017-05-30T08:52:53.492Z,1700
2017-05-30T08:53:54.928Z,1760
2017-05-30T08:54:57.173Z,1612
2017-05-30T08:55:58.613Z,1600
2017-05-30T08:57:00.677Z,1676
2017-05-30T08:58:02.115Z,1616
2017-05-30T08:59:03.548Z,1492
2017-05-30T09:00:05.585Z,1388
2017-05-30T09:01:07.019Z,1688
2017-05-30T09:02:09.849Z,1876
2017-05-30T09:03:11.923Z,1820
2017-05-30T09:04:13.373Z,1668
2017-05-30T09:05:15.713Z,1724
2017-05-30T09:06:16.766Z,1800
2017-05-30T09:07:18.201Z,1808
2017-05-30T09:08:20.464Z,1844
2017-05-30T09:09:21.896Z,1744
2017-05-30T09:10:23.328Z,1492
2017-05-30T09:11:25.397Z,1544
2017-05-30T09:12:26.835Z,1584
2017-05-30T09:13:29.201Z,1880
2017-05-30T09:14:30.646Z,1852
2017-05-30T09:15:32.757Z,1784
2017-05-30T09:16:34.202Z,1792
2017-05-30T09:17:36.614Z,1640
2017-05-30T09:18:38.729Z,1748
2017-05-30T09:19:40.242Z,1824
2017-05-30T09:20:41.677Z,2036
2017-05-30T09:21:43.743Z,1896
2017-05-30T09:22:45.183Z,2000
2017-05-30T09:23:46.616Z,2116
2017-05-30T09:24:48.929Z,2040
2017-05-30T09:25:50.954Z,1952
2017-05-30T09:26:52.397Z,1724
2017-05-30T09:27:53.828Z,1436
2017-05-30T09:28:56.196Z,1580
2017-05-30T09:29:57.635Z,1456
2017-05-30T09:30:59.768Z,1576
2017-05-30T09:32:01.200Z,1760
2017-05-30T09:33:03.619Z,1836
2017-05-30T09:34:05.066Z,1888
2017-05-30T09:35:07.281Z,1900
2017-05-30T09:36:08.724Z,2016
2017-05-30T09:37:10.726Z,1996
2017-05-30T09:38:12.171Z,1812
2017-05-30T09:39:14.388Z,1548
2017-05-30T09:40:15.847Z,1560
2017-05-30T09:41:18.240Z,2200
2017-05-30T09:42:18.652Z,2052
2017-05-30T09:43:20.087Z,2440
2017-05-30T09:44:21.530Z,2472
2017-05-30T09:45:23.721Z,2204
2017-05-30T09:46:25.157Z,2272
2017-05-30T09:47:27.174Z,2124
2017-05-30T09:49:33.513Z,2720
2017-05-30T09:50:35.661Z,2740
2017-05-30T09:51:37.099Z,2692
2017-05-30T09:52:39.066Z,2512
2017-05-30T09:53:40.622Z,2708
2017-05-30T09:54:42.062Z,2748
2017-05-30T09:55:44.452Z,2620
2017-05-30T09:56:46.569Z,3008
2017-05-30T09:57:48.074Z,2748
2017-05-30T09:58:49.513Z,2848
2017-05-30T09:59:51.607Z,3044
2017-05-30T10:00:53.049Z,2856
2017-05-30T10:01:55.244Z,3040
2017-05-30T10:02:56.680Z,2984
2017-05-30T10:03:58.660Z,3020
2017-05-30T10:05:00.098Z,2404
2017-05-30T10:06:01.533Z,2260
2017-05-30T10:07:03.565Z,2356
2017-05-30T10:08:05.002Z,2516
2017-05-30T10:09:07.330Z,2580
2017-05-30T10:10:08.763Z,2500
2017-05-30T10:11:10.948Z,2772
2017-05-30T10:12:12.382Z,3348
2017-05-30T10:13:14.807Z,3316
2017-05-30T10:14:16.236Z,3356
2017-05-30T10:15:18.534Z,3328
2017-05-30T10:16:19.977Z,3232
2017-05-30T10:17:22.040Z,3108
2017-05-30T10:18:23.476Z,3260
2017-05-30T10:19:25.768Z,3556
2017-05-30T10:20:27.204Z,3452
2017-05-30T10:21:28.639Z,3184
2017-05-30T10:22:30.983Z,3084
2017-05-30T10:23:32.421Z,3316
2017-05-30T10:24:34.549Z,3256
2017-05-30T10:25:35.977Z,3300
2017-05-30T10:26:37.956Z,3456
2017-05-30T10:27:39.390Z,3832
2017-05-30T10:28:41.629Z,3828
2017-05-30T10:29:43.163Z,3532
2017-05-30T10:30:44.613Z,2700
2017-05-30T10:31:46.649Z,2336
2017-05-30T10:32:48.090Z,2136
2017-05-30T10:33:50.502Z,2236
2017-05-30T10:34:51.934Z,2408
2017-05-30T10:35:54.190Z,2392
2017-05-30T10:36:56.150Z,2444
2017-05-30T10:37:57.689Z,2888
2017-05-30T10:38:59.130Z,2576
2017-05-30T10:40:01.536Z,2412
2017-05-30T10:41:04.075Z,2216
2017-05-30T10:42:05.515Z,2292
2017-05-30T10:43:07.814Z,2312
2017-05-30T10:44:09.254Z,2304
2017-05-30T10:45:11.282Z,2212
2017-05-30T10:46:13.408Z,2324
2017-05-30T10:47:15.581Z,3368
2017-05-30T10:48:17.022Z,3588
2017-05-30T10:49:18.999Z,3012
2017-05-30T10:50:20.438Z,3024
2017-05-30T10:51:21.891Z,2924
2017-05-30T10:52:24.177Z,3336
2017-05-30T10:53:25.620Z,3456
2017-05-30T10:54:27.765Z,3408
2017-05-30T10:55:29.202Z,3328
2017-05-30T10:56:30.633Z,3060
2017-05-30T10:57:32.072Z,3496
2017-05-30T10:58:33.510Z,4060
2017-05-30T10:59:35.897Z,4076
2017-05-30T11:00:37.332Z,4144
2017-05-30T11:01:39.461Z,3992
2017-05-30T11:02:40.902Z,3712
2017-05-30T11:03:43.261Z,3264
2017-05-30T11:04:44.706Z,4228
2017-05-30T11:05:46.825Z,4600
2017-05-30T11:06:48.273Z,4636
2017-05-30T11:07:50.219Z,4752
2017-05-30T11:08:51.684Z,4248
2017-05-30T11:09:53.127Z,3548
2017-05-30T11:10:55.433Z,3112
2017-05-30T11:11:56.868Z,3256
2017-05-30T11:12:58.920Z,1956
2017-05-30T11:14:00.444Z,1696
2017-05-30T11:15:02.720Z,1028
2017-05-30T11:16:03.838Z,604
2017-05-30T11:17:05.298Z,428
2017-05-30T11:18:07.615Z,272
2017-05-30T11:19:09.058Z,240
2017-05-30T11:20:11.147Z,232
2017-05-30T11:21:12.584Z,276
2017-05-30T11:22:14.767Z,372
2017-05-30T11:23:16.332Z,484
2017-05-30T11:24:18.328Z,608
2017-05-30T11:25:19.770Z,792
2017-05-30T11:26:21.207Z,1100
2017-05-30T11:27:23.189Z,1280
2017-05-30T11:28:24.626Z,1552
2017-05-30T11:29:26.948Z,1296
2017-05-30T11:30:28.391Z,1196
2017-05-30T11:31:30.466Z,1212
2017-05-30T11:32:31.898Z,1172
2017-05-30T11:33:33.332Z,1292
2017-05-30T11:34:35.344Z,1660
2017-05-30T11:35:38.854Z,1952
2017-05-30T11:36:40.845Z,2024
2017-05-30T11:37:42.289Z,2172
2017-05-30T11:38:44.520Z,1996
2017-05-30T11:39:45.168Z,1696
2017-05-30T11:40:46.607Z,1404
2017-05-30T11:41:48.042Z,1308
2017-05-30T11:42:52.927Z,1320
2017-05-30T11:43:55.196Z,1468
2017-05-30T11:44:56.639Z,1680
2017-05-30T11:45:58.807Z,2000
2017-05-30T11:47:00.243Z,2220
2017-05-30T11:48:02.284Z,2444
2017-05-30T11:49:03.721Z,3072
2017-05-30T11:50:05.993Z,4624
2017-05-30T11:51:07.428Z,4668
2017-05-30T11:52:09.506Z,4796
2017-05-30T11:53:10.946Z,4512
2017-05-30T11:54:12.383Z,3964
2017-05-30T11:55:14.364Z,3820
2017-05-30T11:56:15.804Z,4088
2017-05-30T11:57:18.092Z,4380
2017-05-30T11:58:19.523Z,4764
2017-05-30T11:59:21.688Z,4552
2017-05-30T12:00:23.128Z,4540
2017-05-30T12:01:24.565Z,4704
2017-05-30T12:02:26.003Z,5096
2017-05-30T12:03:27.439Z,5204
2017-05-30T12:04:28.878Z,4956
2017-05-30T12:05:30.313Z,4580
2017-05-30T12:06:31.739Z,4228
2017-05-30T12:07:33.179Z,4260
2017-05-30T12:08:34.617Z,4944
2017-05-30T12:09:36.058Z,3268
2017-05-30T12:10:37.494Z,2488
2017-05-30T12:11:38.929Z,2032
2017-05-30T12:12:40.368Z,1860
2017-05-30T12:13:41.806Z,1912
2017-05-30T12:14:43.241Z,2312
2017-05-30T12:15:45.514Z,2908
2017-05-30T12:16:47.776Z,2968
2017-05-30T12:17:50.187Z,3168
2017-05-30T12:18:52.503Z,3116
2017-05-30T12:19:53.951Z,3584
2017-05-30T12:20:55.394Z,3864
2017-05-30T12:21:56.824Z,2716
2017-05-30T12:22:58.252Z,1412
2017-05-30T12:24:00.275Z,768
2017-05-30T12:25:02.235Z,552
2017-05-30T12:26:03.667Z,604
2017-05-30T12:27:05.858Z,668
2017-05-30T12:28:08.274Z,892
2017-05-30T12:29:09.711Z,1088
2017-05-30T12:30:11.965Z,1476
2017-05-30T12:31:14.251Z,2096
2017-05-30T12:32:15.687Z,2620
2017-05-30T12:33:17.551Z,3624
2017-05-30T12:34:18.985Z,4440
2017-05-30T12:35:21.091Z,5900
2017-05-30T12:36:23.122Z,5212
2017-05-30T12:37:24.558Z,5356
2017-05-30T12:38:25.995Z,4084
2017-05-30T12:39:27.980Z,4224
2017-05-30T12:40:30.098Z,3912
2017-05-30T12:41:31.543Z,4784
2017-05-30T12:42:33.968Z,4604
2017-05-30T12:43:36.308Z,4284
2017-05-30T12:44:38.513Z,4772
2017-05-30T12:45:40.926Z,3752
2017-05-30T12:46:43.627Z,3468
2017-05-30T12:47:46.024Z,2848
2017-05-30T12:48:48.130Z,2424
2017-05-30T12:49:50.239Z,1836
2017-05-30T12:50:51.673Z,1252
2017-05-30T12:51:53.107Z,808
2017-05-30T12:52:54.544Z,676
2017-05-30T12:53:56.650Z,520
2017-05-30T12:54:58.846Z,388
2017-05-30T12:56:00.992Z,296
2017-05-30T12:57:03.187Z,524
2017-05-30T12:58:05.364Z,932
2017-05-30T12:59:06.810Z,1148
2017-05-30T13:00:08.818Z,1220
2017-05-30T13:01:10.817Z,1400
2017-05-30T13:02:13.068Z,1500
2017-05-30T13:03:15.051Z,1468
2017-05-30T13:04:17.060Z,1436
2017-05-30T13:05:18.508Z,1464
2017-05-30T13:06:20.681Z,1524
2017-05-30T13:07:22.113Z,1436
2017-05-30T13:08:24.510Z,1360
2017-05-30T13:09:25.948Z,1304
2017-05-30T13:10:28.088Z,1296
2017-05-30T13:11:30.268Z,1264
2017-05-30T13:12:31.697Z,1208
2017-05-30T13:13:33.150Z,1192
2017-05-30T13:14:34.581Z,1168
2017-05-30T13:15:36.027Z,1124
2017-05-30T13:16:38.067Z,1156
2017-05-30T13:17:39.501Z,1232
2017-05-30T13:18:40.937Z,1320
2017-05-30T13:19:42.387Z,1244
2017-05-30T13:20:43.816Z,1240
2017-05-30T13:21:45.245Z,1272
2017-05-30T13:22:46.679Z,1304
2017-05-30T13:23:48.106Z,1332
2017-05-30T13:24:49.540Z,1424
2017-05-30T13:25:50.981Z,1488
2017-05-30T13:26:52.411Z,1508
2017-05-30T13:27:53.841Z,1584
2017-05-30T13:28:55.275Z,1572
2017-05-30T13:29:56.714Z,608
2017-05-30T13:30:58.141Z,1548
2017-05-30T13:31:59.579Z,1500
2017-05-30T13:33:01.019Z,1268
2017-05-30T13:34:02.451Z,1356
2017-05-30T13:35:03.880Z,1248
2017-05-30T13:36:05.314Z,1092
2017-05-30T13:37:06.755Z,980
2017-05-30T13:38:08.187Z,920
2017-05-30T13:39:09.615Z,860
2017-05-30T13:40:11.048Z,836
2017-05-30T13:41:12.482Z,860
2017-05-30T13:42:13.918Z,916
2017-05-30T13:43:15.347Z,976
2017-05-30T13:44:17.413Z,1116
2017-05-30T13:45:18.848Z,1272
2017-05-30T13:46:20.276Z,1388
2017-05-30T13:47:21.707Z,1536
2017-05-30T13:48:23.138Z,1780
2017-05-30T13:49:24.581Z,1864
2017-05-30T13:50:26.015Z,2356
2017-05-30T13:51:27.444Z,4132
2017-05-30T13:52:28.882Z,2920
2017-05-30T13:53:30.317Z,4132
2017-05-30T13:54:31.753Z,4912
2017-05-30T13:55:33.181Z,7952
2017-05-30T13:56:34.627Z,5460
2017-05-30T13:57:36.065Z,4012
2017-05-30T13:58:37.509Z,2556
2017-05-30T13:59:38.948Z,1920
2017-05-30T14:00:40.384Z,1548
2017-05-30T14:01:41.824Z,1216
2017-05-30T14:02:43.265Z,1052
2017-05-30T14:03:44.702Z,964
2017-05-30T14:04:46.130Z,960
2017-05-30T14:05:47.568Z,1004
2017-05-30T14:06:49.010Z,1024
2017-05-30T14:07:50.446Z,1156
2017-05-30T14:08:51.882Z,1544
2017-05-30T14:09:54.117Z,2708
2017-05-30T14:10:55.560Z,2400
2017-05-30T14:11:57.009Z,1868
2017-05-30T14:12:58.448Z,1572
2017-05-30T14:13:59.877Z,1448
2017-05-30T14:15:01.319Z,588
2017-05-30T14:16:02.767Z,700
2017-05-30T14:17:04.197Z,976
2017-05-30T14:18:05.626Z,1024
2017-05-30T14:19:07.059Z,1068
2017-05-30T14:20:08.495Z,1084